createdAt,value
2023-02-12T00:00:06.253Z,3.60
2023-02-12T00:02:41.956Z,3.50
2023-02-12T00:05:08.821Z,3.50
2023-02-12T00:07:35.613Z,3.60
2023-02-12T00:10:02.471Z,3.60
2023-02-12T00:12:29.282Z,3.60
2023-02-12T00:14:56.066Z,3.50
2023-02-12T00:17:22.868Z,3.50
2023-02-12T00:19:49.673Z,3.60
2023-02-12T00:22:16.501Z,3.50
2023-02-12T00:24:43.249Z,3.60
2023-02-12T00:27:10.008Z,3.60
2023-02-12T00:29:38.010Z,3.50
2023-02-12T00:32:05.714Z,3.50
2023-02-12T00:34:32.573Z,3.50
2023-02-12T00:36:59.512Z,3.50
2023-02-12T00:39:26.962Z,3.50
2023-02-12T00:41:53.894Z,3.50
2023-02-12T00:44:20.662Z,3.50
2023-02-12T00:46:47.547Z,3.50
2023-02-12T00:49:19.010Z,3.50
2023-02-12T00:51:45.907Z,3.50
2023-02-12T00:54:12.687Z,3.60
2023-02-12T00:56:39.498Z,3.50
2023-02-12T00:59:06.295Z,3.50
2023-02-12T01:01:33.673Z,3.50
2023-02-12T01:04:00.507Z,3.50
2023-02-12T01:06:27.328Z,3.50
2023-02-12T01:08:54.144Z,3.50
2023-02-12T01:11:21.187Z,3.50
2023-02-12T01:13:48.646Z,3.60
2023-02-12T01:16:22.521Z,3.60
2023-02-12T01:18:53.177Z,3.60
2023-02-12T01:21:27.576Z,3.50
2023-02-12T01:23:55.412Z,3.50
2023-02-12T01:26:22.927Z,3.60
2023-02-12T01:29:02.125Z,3.60
2023-02-12T01:31:32.304Z,3.50
2023-02-12T01:34:00.901Z,3.60
2023-02-12T01:36:29.585Z,3.60
2023-02-12T01:38:57.992Z,3.50
2023-02-12T01:41:49.954Z,3.60
2023-02-12T01:44:25.688Z,3.60
2023-02-12T01:47:00.667Z,3.50
2023-02-12T01:49:40.734Z,3.60
2023-02-12T01:52:15.542Z,3.50
2023-02-12T01:54:43.543Z,3.50
2023-02-12T01:57:13.943Z,3.50
2023-02-12T01:59:43.489Z,3.50
2023-02-12T02:02:10.331Z,3.50
2023-02-12T02:04:49.693Z,3.50
2023-02-12T02:07:16.813Z,3.50
2023-02-12T02:09:44.176Z,3.50
2023-02-12T02:12:29.502Z,3.50
2023-02-12T02:15:00.175Z,3.50
2023-02-12T02:17:53.679Z,3.50
2023-02-12T02:20:49.819Z,3.50
2023-02-12T02:23:43.139Z,3.50
2023-02-12T02:26:54.563Z,3.50
2023-02-12T02:29:46.749Z,3.50
2023-02-12T02:32:21.941Z,3.50
2023-02-12T02:35:10.942Z,3.40
2023-02-12T02:37:44.132Z,3.40
2023-02-12T02:40:23.440Z,3.40
2023-02-12T02:43:09.605Z,3.40
2023-02-12T02:45:41.468Z,3.40
2023-02-12T02:48:28.922Z,3.40
2023-02-12T02:51:08.516Z,3.40
2023-02-12T02:53:47.364Z,3.40
2023-02-12T02:56:20.838Z,3.40
2023-02-12T02:58:56.937Z,3.40
2023-02-12T03:01:45.469Z,3.40
2023-02-12T03:04:21.684Z,3.40
2023-02-12T03:06:59.846Z,3.40
2023-02-12T03:09:32.887Z,3.40
2023-02-12T03:12:11.884Z,3.40
2023-02-12T03:14:42.660Z,3.40
2023-02-12T03:17:14.091Z,3.40
2023-02-12T03:20:12.908Z,3.40
2023-02-12T03:22:42.594Z,3.40
2023-02-12T03:25:09.733Z,3.40
2023-02-12T03:27:43.560Z,3.40
2023-02-12T03:30:11.298Z,3.40
2023-02-12T03:32:53.043Z,3.40
2023-02-12T03:35:31.914Z,3.40
2023-02-12T03:38:03.386Z,3.40
2023-02-12T03:40:40.331Z,3.40
2023-02-12T03:43:15.646Z,3.40
2023-02-12T03:45:52.402Z,3.40
2023-02-12T03:48:35.548Z,3.40
2023-02-12T03:51:08.175Z,3.40
2023-02-12T03:53:35.065Z,3.40
2023-02-12T03:56:08.221Z,3.40
2023-02-12T03:58:37.125Z,3.40
2023-02-12T04:01:04.483Z,3.40
2023-02-12T04:03:32.197Z,3.40
2023-02-12T04:05:58.972Z,3.40
2023-02-12T04:08:27.405Z,3.40
2023-02-12T04:11:00.348Z,3.40
2023-02-12T04:13:33.408Z,3.40
2023-02-12T04:16:12.190Z,3.40
2023-02-12T04:18:44.024Z,3.40
2023-02-12T04:21:41.919Z,3.40
2023-02-12T04:24:38.298Z,3.40
2023-02-12T04:27:10.018Z,3.40
2023-02-12T04:29:56.004Z,3.40
2023-02-12T04:32:52.905Z,3.30
2023-02-12T04:35:29.985Z,3.30
2023-02-12T04:38:26.971Z,3.30
2023-02-12T04:40:53.934Z,3.40
2023-02-12T04:43:30.784Z,3.40
2023-02-12T04:45:58.036Z,3.40
2023-02-12T04:48:25.127Z,3.40
2023-02-12T04:50:52.567Z,3.40
2023-02-12T04:53:19.693Z,3.40
2023-02-12T04:55:47.710Z,3.30
2023-02-12T04:58:14.522Z,3.40
2023-02-12T05:00:41.352Z,3.40
2023-02-12T05:03:08.164Z,3.30
2023-02-12T05:05:35.009Z,3.40
2023-02-12T05:08:01.865Z,3.40
2023-02-12T05:10:28.690Z,3.30
2023-02-12T05:12:56.061Z,3.40
2023-02-12T05:15:22.949Z,3.30
2023-02-12T05:17:49.749Z,3.30
2023-02-12T05:20:16.700Z,3.30
2023-02-12T05:22:43.486Z,3.30
2023-02-12T05:25:10.493Z,3.30
2023-02-12T05:27:37.358Z,3.30
2023-02-12T05:30:05.778Z,3.40
2023-02-12T05:32:32.693Z,3.30
2023-02-12T05:34:59.465Z,3.30
2023-02-12T05:37:26.357Z,3.30
2023-02-12T05:39:53.887Z,3.30
2023-02-12T05:42:20.741Z,3.40
2023-02-12T05:44:47.490Z,3.30
2023-02-12T05:47:14.364Z,3.30
2023-02-12T05:49:41.220Z,3.30
2023-02-12T05:52:08.001Z,3.30
2023-02-12T05:54:34.813Z,3.30
2023-02-12T05:57:01.638Z,3.30
2023-02-12T05:59:28.459Z,3.30
2023-02-12T06:01:55.319Z,3.30
2023-02-12T06:04:26.578Z,3.40
2023-02-12T06:06:54.477Z,3.30
2023-02-12T06:09:22.124Z,3.30
2023-02-12T06:11:48.945Z,3.30
2023-02-12T06:14:18.585Z,3.30
2023-02-12T06:16:47.467Z,3.30
2023-02-12T06:19:14.967Z,3.30
2023-02-12T06:21:42.011Z,3.30
2023-02-12T06:24:13.247Z,3.30
2023-02-12T06:26:40.231Z,3.30
2023-02-12T06:29:07.077Z,3.30
2023-02-12T06:31:36.668Z,3.30
2023-02-12T06:34:10.267Z,3.30
2023-02-12T06:36:39.096Z,3.30
2023-02-12T06:39:06.772Z,3.30
2023-02-12T06:41:36.408Z,3.30
2023-02-12T06:44:03.864Z,3.20
2023-02-12T06:46:30.983Z,3.20
2023-02-12T06:49:00.218Z,3.20
2023-02-12T06:51:29.004Z,3.20
2023-02-12T06:53:57.009Z,3.20
2023-02-12T06:56:26.595Z,3.20
2023-02-12T06:58:58.658Z,3.20
2023-02-12T07:01:27.705Z,3.20
2023-02-12T07:04:00.263Z,3.10
2023-02-12T07:06:28.794Z,3.10
2023-02-12T07:08:58.711Z,3.10
2023-02-12T07:11:27.623Z,3.10
2023-02-12T07:13:54.711Z,3.10
2023-02-12T07:16:21.824Z,3.00
2023-02-12T07:18:48.720Z,3.00
2023-02-12T07:21:16.252Z,3.00
2023-02-12T07:23:51.399Z,3.00
2023-02-12T07:26:20.711Z,3.00
2023-02-12T07:28:47.592Z,3.00
2023-02-12T07:31:17.787Z,3.00
2023-02-12T07:33:45.171Z,3.10
2023-02-12T07:36:17.948Z,3.10
2023-02-12T07:38:44.790Z,3.10
2023-02-12T07:41:12.288Z,3.10
2023-02-12T07:43:43.692Z,3.10
2023-02-12T07:46:17.191Z,3.20
2023-02-12T07:48:45.602Z,3.20
2023-02-12T07:51:15.476Z,3.20
2023-02-12T07:53:42.733Z,3.30
2023-02-12T07:56:10.626Z,3.30
2023-02-12T07:58:38.969Z,3.40
2023-02-12T08:01:20.717Z,3.40
2023-02-12T08:03:48.506Z,3.50
2023-02-12T08:06:24.163Z,3.50
2023-02-12T08:08:52.782Z,3.60
2023-02-12T08:11:20.030Z,3.60
2023-02-12T08:13:47.239Z,3.60
2023-02-12T08:16:17.074Z,3.70
2023-02-12T08:18:44.379Z,3.70
2023-02-12T08:21:16.651Z,3.80
2023-02-12T08:23:43.653Z,3.80
2023-02-12T08:26:21.803Z,3.90
2023-02-12T08:28:54.454Z,4.00
2023-02-12T08:31:24.392Z,4.00
2023-02-12T08:33:52.718Z,4.00
2023-02-12T08:36:22.626Z,4.10
2023-02-12T08:38:49.893Z,4.10
2023-02-12T08:41:20.670Z,4.20
2023-02-12T08:43:49.947Z,4.20
2023-02-12T08:46:19.489Z,4.30
2023-02-12T08:48:46.809Z,4.30
2023-02-12T08:51:14.817Z,4.40
2023-02-12T08:53:43.831Z,4.40
2023-02-12T08:56:13.063Z,4.40
2023-02-12T08:58:40.061Z,4.50
2023-02-12T09:01:11.815Z,4.50
2023-02-12T09:03:39.233Z,4.50
2023-02-12T09:06:07.266Z,4.60
2023-02-12T09:08:34.620Z,4.60
2023-02-12T09:11:08.296Z,4.70
2023-02-12T09:13:35.851Z,4.70
2023-02-12T09:16:04.264Z,4.80
2023-02-12T09:18:31.716Z,4.80
2023-02-12T09:21:05.980Z,4.80
2023-02-12T09:23:33.226Z,4.90
2023-02-12T09:26:00.125Z,4.90
2023-02-12T09:28:26.938Z,4.90
2023-02-12T09:30:53.829Z,5.00
2023-02-12T09:33:20.701Z,5.00
2023-02-12T09:35:47.521Z,5.10
2023-02-12T09:38:14.311Z,5.10
2023-02-12T09:41:10.080Z,5.20
2023-02-12T09:43:53.017Z,5.20
2023-02-12T09:46:32.791Z,5.30
2023-02-12T09:49:11.441Z,5.30
2023-02-12T09:51:40.171Z,5.40
2023-02-12T09:54:15.884Z,5.50
2023-02-12T09:56:47.951Z,5.40
2023-02-12T09:59:42.792Z,5.40
2023-02-12T10:02:15.357Z,5.40
2023-02-12T10:04:58.615Z,5.40
2023-02-12T10:07:48.247Z,5.40
2023-02-12T10:10:43.522Z,5.50
2023-02-12T10:13:13.361Z,5.50
2023-02-12T10:16:02.167Z,5.50
2023-02-12T10:19:04.531Z,5.50
2023-02-12T10:22:03.352Z,5.50
2023-02-12T10:24:36.350Z,5.60
2023-02-12T10:27:11.512Z,5.60
2023-02-12T10:29:42.425Z,5.70
2023-02-12T10:32:27.748Z,5.80
2023-02-12T10:34:56.576Z,5.80
2023-02-12T10:37:35.847Z,5.80
2023-02-12T10:40:17.440Z,5.90
2023-02-12T10:42:50.817Z,6.00
2023-02-12T10:45:40.070Z,6.10
2023-02-12T10:48:22.705Z,6.10
2023-02-12T10:51:00.696Z,6.10
2023-02-12T10:53:34.449Z,6.20
2023-02-12T10:56:12.875Z,6.20
2023-02-12T10:59:03.287Z,6.20
2023-02-12T11:01:39.309Z,6.20
2023-02-12T11:04:32.262Z,6.20
2023-02-12T11:07:06.958Z,6.30
2023-02-12T11:09:45.274Z,6.30
2023-02-12T11:12:25.614Z,6.30
2023-02-12T11:14:55.120Z,6.30
2023-02-12T11:17:30.849Z,6.30
2023-02-12T11:20:16.346Z,6.30
2023-02-12T11:23:03.687Z,6.40
2023-02-12T11:25:33.927Z,6.30
2023-02-12T11:28:14.965Z,6.30
2023-02-12T11:30:55.124Z,6.30
2023-02-12T11:33:35.916Z,6.20
2023-02-12T11:36:25.085Z,6.20
2023-02-12T11:38:59.524Z,6.20
2023-02-12T11:41:40.824Z,6.20
2023-02-12T11:44:17.892Z,6.10
2023-02-12T11:46:55.463Z,6.10
2023-02-12T11:49:32.689Z,6.10
2023-02-12T11:52:02.829Z,6.10
2023-02-12T11:54:36.270Z,6.20
2023-02-12T11:57:03.044Z,6.20
2023-02-12T11:59:36.532Z,6.30
2023-02-12T12:02:23.629Z,6.40
2023-02-12T12:04:53.745Z,6.40
2023-02-12T12:07:28.288Z,6.40
2023-02-12T12:10:07.517Z,6.40
2023-02-12T12:12:53.677Z,6.40
2023-02-12T12:15:44.891Z,6.40
2023-02-12T12:18:55.356Z,6.50
2023-02-12T12:21:42.512Z,6.50
2023-02-12T12:24:20.654Z,6.50
2023-02-12T12:27:00.300Z,6.50
2023-02-12T12:29:41.689Z,6.50
2023-02-12T12:32:13.612Z,6.50
2023-02-12T12:34:40.491Z,6.50
2023-02-12T12:37:15.900Z,6.60
2023-02-12T12:40:12.965Z,6.60
2023-02-12T12:43:00.511Z,6.60
2023-02-12T12:45:34.213Z,6.60
2023-02-12T12:48:14.593Z,6.60
2023-02-12T12:51:18.204Z,6.50
2023-02-12T12:54:22.339Z,6.60
2023-02-12T12:57:01.234Z,6.60
2023-02-12T12:59:35.470Z,6.60
2023-02-12T13:02:39.950Z,6.60
2023-02-12T13:05:18.746Z,6.60
2023-02-12T13:07:53.612Z,6.60
2023-02-12T13:10:47.848Z,6.60
2023-02-12T13:13:31.129Z,6.70
2023-02-12T13:16:12.221Z,6.70
2023-02-12T13:19:16.077Z,6.70
2023-02-12T13:21:42.759Z,6.70
2023-02-12T13:24:40.408Z,6.70
2023-02-12T13:27:16.874Z,6.80
2023-02-12T13:29:52.564Z,6.80
2023-02-12T13:32:32.532Z,6.90
2023-02-12T13:35:00.764Z,6.90
2023-02-12T13:37:36.693Z,7.00
2023-02-12T13:40:09.016Z,7.00
2023-02-12T13:43:13.614Z,7.00
2023-02-12T13:46:07.073Z,7.00
2023-02-12T13:48:57.187Z,7.00
2023-02-12T13:52:22.023Z,7.00
2023-02-12T13:55:13.357Z,7.00
2023-02-12T13:57:40.200Z,7.00
2023-02-12T14:00:45.414Z,7.10
2023-02-12T14:03:12.670Z,7.20
2023-02-12T14:05:39.591Z,7.10
2023-02-12T14:08:07.140Z,7.10
2023-02-12T14:10:40.783Z,7.10
2023-02-12T14:13:22.114Z,7.10
2023-02-12T14:15:55.702Z,7.10
2023-02-12T14:18:36.882Z,7.10
2023-02-12T14:21:12.496Z,7.10
2023-02-12T14:23:49.992Z,7.00
2023-02-12T14:26:19.289Z,7.00
2023-02-12T14:28:54.977Z,7.00
2023-02-12T14:31:28.045Z,7.00
2023-02-12T14:34:07.588Z,6.90
2023-02-12T14:36:41.543Z,6.90
2023-02-12T14:39:20.873Z,6.90
2023-02-12T14:41:55.564Z,6.90
2023-02-12T14:44:27.327Z,6.90
2023-02-12T14:46:58.363Z,6.90
2023-02-12T14:49:30.015Z,7.00
2023-02-12T14:52:01.700Z,7.00
2023-02-12T14:54:34.300Z,7.00
2023-02-12T14:57:07.179Z,7.00
2023-02-12T14:59:39.665Z,7.10
2023-02-12T15:02:12.768Z,7.10
2023-02-12T15:04:45.769Z,7.10
2023-02-12T15:07:21.637Z,7.10
2023-02-12T15:10:11.098Z,7.10
2023-02-12T15:12:43.118Z,7.10
2023-02-12T15:15:25.404Z,7.10
2023-02-12T15:18:00.392Z,7.10
2023-02-12T15:20:46.252Z,7.00
2023-02-12T15:23:30.778Z,7.00
2023-02-12T15:25:59.180Z,7.00
2023-02-12T15:28:39.355Z,7.00
2023-02-12T15:31:11.034Z,7.10
2023-02-12T15:33:44.765Z,7.10
2023-02-12T15:36:18.360Z,7.10
2023-02-12T15:38:50.474Z,7.10
2023-02-12T15:41:31.934Z,7.00
2023-02-12T15:44:04.482Z,7.10
2023-02-12T15:46:31.317Z,7.00
2023-02-12T15:48:58.426Z,7.00
2023-02-12T15:51:35.308Z,7.00
2023-02-12T15:54:06.169Z,7.00
2023-02-12T15:56:36.196Z,6.90
2023-02-12T15:59:03.913Z,6.90
2023-02-12T16:01:35.338Z,6.90
2023-02-12T16:04:05.331Z,6.90
2023-02-12T16:06:34.648Z,6.80
2023-02-12T16:09:02.864Z,6.80
2023-02-12T16:11:31.859Z,6.70
2023-02-12T16:14:05.573Z,6.70
2023-02-12T16:16:52.721Z,6.60
2023-02-12T16:19:32.984Z,6.60
2023-02-12T16:22:05.627Z,6.50
2023-02-12T16:24:35.721Z,6.50
2023-02-12T16:27:09.446Z,6.40
2023-02-12T16:29:43.655Z,6.40
2023-02-12T16:32:45.371Z,6.30
2023-02-12T16:35:12.180Z,6.20
2023-02-12T16:37:38.950Z,6.20
2023-02-12T16:40:17.757Z,6.10
2023-02-12T16:42:47.333Z,6.10
2023-02-12T16:45:41.759Z,6.00
2023-02-12T16:48:08.710Z,5.90
2023-02-12T16:50:43.640Z,5.90
2023-02-12T16:53:26.376Z,5.80
2023-02-12T16:55:54.082Z,5.70
2023-02-12T16:58:21.006Z,5.60
2023-02-12T17:00:48.723Z,5.60
2023-02-12T17:03:17.393Z,5.50
2023-02-12T17:05:45.327Z,5.50
2023-02-12T17:08:22.188Z,5.40
2023-02-12T17:10:49.613Z,5.40
2023-02-12T17:13:17.461Z,5.30
2023-02-12T17:16:01.373Z,5.30
2023-02-12T17:18:28.658Z,5.30
2023-02-12T17:20:58.213Z,5.20
2023-02-12T17:23:25.703Z,5.20
2023-02-12T17:25:52.520Z,5.10
2023-02-12T17:28:19.842Z,5.20
2023-02-12T17:30:46.791Z,5.10
2023-02-12T17:33:13.620Z,5.00
2023-02-12T17:35:40.776Z,5.00
2023-02-12T17:38:07.918Z,5.00
2023-02-12T17:40:36.556Z,5.00
2023-02-12T17:43:05.246Z,5.00
2023-02-12T17:45:32.428Z,4.90
2023-02-12T17:47:59.261Z,4.90
2023-02-12T17:50:26.340Z,4.80
2023-02-12T17:52:53.213Z,4.80
2023-02-12T17:55:20.143Z,4.70
2023-02-12T17:57:50.920Z,4.70
2023-02-12T18:00:18.443Z,4.60
2023-02-12T18:02:45.215Z,4.60
2023-02-12T18:05:12.059Z,4.60
2023-02-12T18:07:38.878Z,4.50
2023-02-12T18:10:06.861Z,4.50
2023-02-12T18:12:34.485Z,4.50
2023-02-12T18:15:04.902Z,4.40
2023-02-12T18:17:31.787Z,4.30
2023-02-12T18:19:58.689Z,4.30
2023-02-12T18:22:25.572Z,4.20
2023-02-12T18:24:52.648Z,4.10
2023-02-12T18:27:19.580Z,4.00
2023-02-12T18:29:46.409Z,4.00
2023-02-12T18:32:15.975Z,3.90
2023-02-12T18:34:43.738Z,3.80
2023-02-12T18:37:12.337Z,3.80
2023-02-12T18:39:39.595Z,3.80
2023-02-12T18:42:07.143Z,3.70
2023-02-12T18:44:33.907Z,3.70
2023-02-12T18:47:00.778Z,3.60
2023-02-12T18:49:28.377Z,3.50
2023-02-12T18:51:55.349Z,3.40
2023-02-12T18:54:22.555Z,3.40
2023-02-12T18:56:51.794Z,3.30
2023-02-12T18:59:19.430Z,3.30
2023-02-12T19:01:47.413Z,3.30
2023-02-12T19:04:16.056Z,3.30
2023-02-12T19:06:49.276Z,3.20
2023-02-12T19:09:24.316Z,3.20
2023-02-12T19:11:55.132Z,3.10
2023-02-12T19:14:23.822Z,3.10
2023-02-12T19:16:51.175Z,3.10
2023-02-12T19:19:20.192Z,3.00
2023-02-12T19:21:47.367Z,3.00
2023-02-12T19:24:15.371Z,2.90
2023-02-12T19:26:44.288Z,2.90
2023-02-12T19:29:12.409Z,2.90
2023-02-12T19:31:43.405Z,2.90
2023-02-12T19:34:16.080Z,2.80
2023-02-12T19:36:43.641Z,2.70
2023-02-12T19:39:13.001Z,2.70
2023-02-12T19:41:43.059Z,2.60
2023-02-12T19:44:12.988Z,2.60
2023-02-12T19:46:40.630Z,2.60
2023-02-12T19:49:11.536Z,2.50
2023-02-12T19:51:39.595Z,2.60
2023-02-12T19:54:07.962Z,2.50
2023-02-12T19:56:35.552Z,2.50
2023-02-12T19:59:02.715Z,2.40
2023-02-12T20:01:29.513Z,2.40
2023-02-12T20:03:57.263Z,2.50
2023-02-12T20:06:30.988Z,2.50
2023-02-12T20:08:57.810Z,2.50
2023-02-12T20:11:28.832Z,2.40
2023-02-12T20:13:56.402Z,2.40
2023-02-12T20:16:25.869Z,2.40
2023-02-12T20:18:54.391Z,2.30
2023-02-12T20:21:25.266Z,2.30
2023-02-12T20:23:52.116Z,2.30
2023-02-12T20:26:19.912Z,2.30
2023-02-12T20:28:47.500Z,2.20
2023-02-12T20:31:20.538Z,2.20
2023-02-12T20:33:47.926Z,2.10
2023-02-12T20:36:15.033Z,2.10
2023-02-12T20:38:43.505Z,2.00
2023-02-12T20:41:11.307Z,2.00
2023-02-12T20:43:39.113Z,1.90
2023-02-12T20:46:09.835Z,1.90
2023-02-12T20:48:37.310Z,1.90
2023-02-12T20:51:09.635Z,1.90
2023-02-12T20:53:36.517Z,1.90
2023-02-12T20:56:09.345Z,1.80
2023-02-12T20:58:36.424Z,1.80
2023-02-12T21:01:18.025Z,1.80
2023-02-12T21:03:45.476Z,1.70
2023-02-12T21:06:12.276Z,1.80
2023-02-12T21:08:40.729Z,1.70
2023-02-12T21:11:14.656Z,1.70
2023-02-12T21:13:53.679Z,1.70
2023-02-12T21:16:41.107Z,1.70
2023-02-12T21:19:09.176Z,1.70
2023-02-12T21:21:38.112Z,1.70
2023-02-12T21:24:07.728Z,1.60
2023-02-12T21:26:35.960Z,1.60
2023-02-12T21:29:03.881Z,1.60
2023-02-12T21:31:33.400Z,1.60
2023-02-12T21:34:01.519Z,1.60
2023-02-12T21:36:33.091Z,1.60
2023-02-12T21:39:00.534Z,1.50
2023-02-12T21:41:34.375Z,1.50
2023-02-12T21:44:17.015Z,1.50
2023-02-12T21:46:44.527Z,1.50
2023-02-12T21:49:13.339Z,1.50
2023-02-12T21:51:43.024Z,1.50
2023-02-12T21:54:15.573Z,1.40
2023-02-12T21:56:44.259Z,1.40
2023-02-12T21:59:11.530Z,1.40
2023-02-12T22:01:44.655Z,1.40
2023-02-12T22:04:11.576Z,1.30
2023-02-12T22:06:41.248Z,1.30
2023-02-12T22:09:10.044Z,1.30
2023-02-12T22:11:38.052Z,1.30
2023-02-12T22:14:07.146Z,1.30
2023-02-12T22:16:36.066Z,1.30
2023-02-12T22:19:04.149Z,1.30
2023-02-12T22:21:35.116Z,1.20
2023-02-12T22:24:03.549Z,1.20
2023-02-12T22:26:31.797Z,1.20
2023-02-12T22:29:02.557Z,1.20
2023-02-12T22:31:32.199Z,1.20
2023-02-12T22:34:01.465Z,1.10
2023-02-12T22:36:29.237Z,1.20
2023-02-12T22:39:00.007Z,1.20
2023-02-12T22:41:28.197Z,1.10
2023-02-12T22:43:55.281Z,1.10
2023-02-12T22:46:23.219Z,1.10
2023-02-12T22:48:49.965Z,1.10
2023-02-12T22:51:21.091Z,1.10
2023-02-12T22:53:47.913Z,1.10
2023-02-12T22:56:15.262Z,1.00
2023-02-12T22:58:42.147Z,1.00
2023-02-12T23:01:17.819Z,1.00
2023-02-12T23:03:45.610Z,1.00
2023-02-12T23:06:16.163Z,1.00
2023-02-12T23:08:43.712Z,0.90
2023-02-12T23:11:11.804Z,1.00
2023-02-12T23:13:38.882Z,0.90
2023-02-12T23:16:05.978Z,0.90
2023-02-12T23:18:33.325Z,0.90
2023-02-12T23:21:00.984Z,0.90
2023-02-12T23:23:28.319Z,0.90
2023-02-12T23:25:55.518Z,0.80
2023-02-12T23:28:23.076Z,0.80
2023-02-12T23:30:51.227Z,0.80
2023-02-12T23:33:19.160Z,0.80
2023-02-12T23:35:47.278Z,0.80
2023-02-12T23:38:14.756Z,0.80
2023-02-12T23:40:41.889Z,0.70
2023-02-12T23:43:08.932Z,0.70
2023-02-12T23:45:35.660Z,0.70
2023-02-12T23:48:02.468Z,0.70
2023-02-12T23:50:29.196Z,0.70
2023-02-12T23:52:55.898Z,0.60
2023-02-12T23:55:22.664Z,0.70
2023-02-12T23:57:50.407Z,0.60
